Weather History for Biloxi, MS

Change the Weather History Date:

Thursday, February 7, 2013

  Actual Average Record
Temperature  
Mean Temperature 66 °F -  
Max Temperature 75 °F 59 °F 77 °F (1957)
Min Temperature 56 °F 40 °F 21 °F (1988)
Cooling Degree Days 1    
Growing Degree Days 16 (Base 50)    
Moisture  
Dew Point 60 °F    
Average Humidity 90    
Maximum Humidity 100    
Minimum Humidity 59    
Precipitation  
Precipitation 1.90 in - - ()
Sea Level Pressure  
Sea Level Pressure 29.88 in    
Wind  
Wind Speed 10 mph (NE)    
Max Wind Speed 24 mph    
Max Gust Speed 36 mph    
Visibility 7 miles    
Events Rain , Thunderstorm    
Averages and records for this station are not official NWS values.
T = Trace of Precipitation, MM = Missing Value Source: NWS Daily Summary

Daily Weather History Graph

Daily Weather History Graph

Search for Another Location

Airport:

Trip Planner

Search our weather history database for the weather conditions in past years. The results will help you decide how hot, cold, wet, or windy it might be!

Date:

Astronomy

Feb. 07, 2013 Rise Set
Actual Time 6:42 AM CST 5:37 PM CST
Civil Twilight 6:17 AM CST 6:02 PM CST
Nautical Twilight 5:49 AM CST 6:31 PM CST
Astronomical Twilight 5:20 AM CST 6:59 PM CST
Moon 4:15 AM CST (2/7) 3:07 PM CST (2/7)
Length of Visible Light 11h 45m
Length of Day
10h 55m
Waning Crescent, 9% of the Moon is Illuminated
Feb 7
Waning Crescent
Feb 10
New
Feb 17
First Quarter
Feb 25
Full
Mar 4
Last Quarter

Hourly Weather History & Observations

Time (CST) Temp. Dew Point Humidity Pressure Visibility Wind Dir Wind Speed Gust Speed Precip Events Conditions
12:13 AM 60.8 °F 59.0 °F 94% 30.01 in 9.0 mi ENE 4.6 mph - N/A Rain Light Rain
12:23 AM 60.8 °F 59.0 °F 94% 30.01 in 7.0 mi East 4.6 mph - N/A Rain Light Rain
12:28 AM 60.8 °F 59.0 °F 94% 30.00 in 7.0 mi ENE 5.8 mph - N/A Rain Light Rain
12:43 AM 60.8 °F 59.0 °F 94% 29.99 in 10.0 mi NE 8.1 mph - N/A Rain Light Rain
12:51 AM 60.8 °F 59.0 °F 94% 29.99 in 10.0 mi ENE 6.9 mph - N/A   Mostly Cloudy
12:58 AM 60.1 °F 59.0 °F 96% 29.99 in 10.0 mi NE 8.1 mph - 0.08 in   Mostly Cloudy
1:03 AM 60.8 °F 59.0 °F 94% 29.98 in 10.0 mi ENE 8.1 mph - N/A   Mostly Cloudy
1:18 AM 60.8 °F 59.0 °F 94% 29.96 in 10.0 mi ENE 9.2 mph - N/A   Mostly Cloudy
1:23 AM 60.8 °F 59.0 °F 94% 29.96 in 10.0 mi ENE 10.4 mph - N/A   Mostly Cloudy
1:33 AM 60.8 °F 59.0 °F 94% 29.95 in 10.0 mi ENE 9.2 mph - N/A   Mostly Cloudy
1:35 AM 60.8 °F 59.0 °F 94% 29.95 in 10.0 mi ENE 9.2 mph - N/A Rain Light Rain
1:58 AM 61.0 °F 59.5 °F 95% 29.96 in 9.0 mi ENE 10.4 mph - 0.01 in Rain Light Rain
2:58 AM 61.2 °F 59.7 °F 95% 29.88 in 10.0 mi East 16.1 mph 21.9 mph 0.14 in Rain Light Rain
3:13 AM 60.8 °F 60.8 °F 100% 29.84 in 8.0 mi East 17.3 mph 26.5 mph N/A Rain Light Rain
3:18 AM 60.8 °F 60.8 °F 100% 29.85 in 10.0 mi ESE 9.2 mph 26.5 mph N/A Rain Light Rain
3:21 AM 60.8 °F 60.8 °F 100% 29.86 in 10.0 mi East 12.7 mph 24.2 mph N/A   Overcast
3:26 AM 62.6 °F 60.8 °F 94% 29.88 in 10.0 mi East 11.5 mph 18.4 mph N/A   Overcast
3:43 AM 62.6 °F 60.8 °F 94% 29.88 in 9.0 mi East 10.4 mph - N/A Rain Light Rain
3:48 AM 62.6 °F 60.8 °F 94% 29.87 in 7.0 mi East 16.1 mph 23.0 mph N/A Rain Light Rain
3:53 AM 62.6 °F 60.8 °F 94% 29.86 in 8.0 mi East 16.1 mph 23.0 mph N/A Rain Light Rain
3:58 AM 62.1 °F 60.3 °F 94% 29.87 in 10.0 mi East 15.0 mph 23.0 mph 0.06 in Rain Light Rain
4:18 AM 62.6 °F 60.8 °F 94% 29.85 in 8.0 mi ESE 11.5 mph - N/A Rain Light Rain
4:23 AM 62.6 °F 60.8 °F 94% 29.84 in 6.0 mi East 15.0 mph - N/A Rain Rain
4:28 AM 62.6 °F 60.8 °F 94% 29.84 in 5.0 mi ESE 15.0 mph - N/A Rain Rain
4:33 AM 62.6 °F 60.8 °F 94% 29.83 in 4.0 mi East 15.0 mph - N/A Rain Light Rain
4:43 AM 62.6 °F 60.8 °F 94% 29.82 in 6.0 mi ESE 13.8 mph 21.9 mph N/A Rain Light Rain
4:48 AM 62.6 °F 60.8 °F 94% 29.82 in 4.0 mi East 12.7 mph 20.7 mph N/A Rain Rain
4:53 AM 62.6 °F 60.8 °F 94% 29.82 in 2.0 mi ESE 12.7 mph 20.7 mph N/A Rain Rain
4:58 AM 62.2 °F 60.6 °F 94% 29.83 in 2.0 mi ESE 12.7 mph 18.4 mph 0.25 in Rain Heavy Rain
5:03 AM 62.6 °F 60.8 °F 94% 29.81 in 3.0 mi East 12.7 mph 19.6 mph N/A Rain Light Rain
5:08 AM 62.6 °F 60.8 °F 94% 29.81 in 4.0 mi East 13.8 mph 19.6 mph N/A Rain Light Rain
5:13 AM 62.6 °F 60.8 °F 94% 29.81 in 4.0 mi East 11.5 mph 19.6 mph N/A Rain Light Rain
5:28 AM 62.6 °F 60.8 °F 94% 29.81 in 6.0 mi East 13.8 mph 21.9 mph N/A Rain Light Rain
5:43 AM 62.6 °F 60.8 °F 94% 29.82 in 6.0 mi East 10.4 mph 19.6 mph N/A Rain Light Rain
5:48 AM 62.6 °F 60.8 °F 94% 29.83 in 3.0 mi East 12.7 mph - N/A Rain Heavy Rain
5:58 AM 62.6 °F 60.8 °F 94% 29.83 in 5.0 mi NNE 10.4 mph - 0.29 in Rain Light Rain
6:03 AM 62.6 °F 60.8 °F 94% 29.84 in 5.0 mi North 15.0 mph - N/A Rain Light Rain
6:08 AM 62.6 °F 60.8 °F 94% 29.83 in 2.5 mi North 16.1 mph 27.6 mph N/A Rain Heavy Rain
6:13 AM 62.6 °F 60.8 °F 94% 29.84 in 1.5 mi North 18.4 mph 27.6 mph N/A Rain Heavy Rain
6:18 AM 60.8 °F 59.0 °F 94% 29.84 in 1.2 mi North 18.4 mph 31.1 mph N/A Rain Heavy Rain
6:19 AM 60.8 °F 59.0 °F 94% 29.85 in 1.2 mi NNW 15.0 mph 31.1 mph N/A Rain Heavy Rain
6:29 AM 60.8 °F 59.0 °F 94% 29.87 in 1.0 mi NNW 19.6 mph 24.2 mph N/A Rain , Thunderstorm Heavy Rain
6:34 AM 60.8 °F 59.0 °F 94% 29.87 in 0.8 mi North 20.7 mph 27.6 mph N/A Rain , Thunderstorm Heavy Rain
6:37 AM 60.8 °F 59.0 °F 94% 29.86 in 0.8 mi North 24.2 mph 31.1 mph N/A Rain , Thunderstorm Heavy Rain
6:42 AM 60.8 °F 59.0 °F 94% 29.87 in 1.2 mi NNE 19.6 mph 31.1 mph N/A Rain , Thunderstorm Heavy Rain
6:47 AM 60.8 °F 59.0 °F 94% 29.83 in 2.0 mi NNE 24.2 mph 33.4 mph N/A Rain Heavy Rain
6:52 AM 60.8 °F 59.0 °F 94% 29.82 in 2.5 mi NE 24.2 mph 35.7 mph N/A Rain Heavy Rain
6:57 AM 60.8 °F 59.0 °F 94% 29.85 in 3.0 mi North 18.4 mph 35.7 mph N/A Rain Rain
6:58 AM 60.8 °F 59.0 °F 94% 29.86 in 3.0 mi North 20.7 mph 34.5 mph 1.04 in Rain Rain
7:52 AM 60.8 °F 59.0 °F 94% 29.86 in 10.0 mi NNE 18.4 mph 25.3 mph N/A   Mostly Cloudy
7:58 AM 61.2 °F 59.2 °F 93% 29.87 in 10.0 mi NE 15.0 mph 25.3 mph 0.03 in   Overcast
8:58 AM 64.8 °F 59.5 °F 83% 29.86 in 10.0 mi ENE 13.8 mph - N/A   Partly Cloudy
9:58 AM 68.5 °F 58.8 °F 71% 29.89 in 10.0 mi NNE 6.9 mph - N/A   Clear
10:58 AM 70.5 °F 58.6 °F 66% 29.91 in 10.0 mi North 3.5 mph - N/A   Clear
11:58 AM 75.4 °F 60.1 °F 59% 29.90 in 10.0 mi SSW 11.5 mph - N/A   Clear
12:58 PM 70.3 °F 60.4 °F 71% 29.89 in 10.0 mi WSW 13.8 mph - N/A   Partly Cloudy
1:58 PM 73.2 °F 61.0 °F 65% 29.87 in 10.0 mi SW 8.1 mph - N/A   Mostly Cloudy
2:58 PM 75.2 °F 60.1 °F 59% 29.87 in 10.0 mi Variable 5.8 mph - N/A   Mostly Cloudy
3:58 PM 72.9 °F 59.2 °F 62% 29.89 in 10.0 mi Variable 6.9 mph - N/A   Partly Cloudy
4:58 PM 70.2 °F 57.9 °F 65% 29.91 in 10.0 mi NNW 6.9 mph - N/A   Clear
5:58 PM 66.7 °F 57.2 °F 71% 29.92 in 10.0 mi NW 4.6 mph - N/A   Clear
6:58 PM 63.1 °F 57.7 °F 83% 29.93 in 10.0 mi NW 1.2 mph - N/A   Clear
7:58 PM 60.8 °F 56.3 °F 85% 29.94 in 10.0 mi West 2.3 mph - N/A   Clear
8:58 PM 60.6 °F 57.4 °F 89% 29.95 in 10.0 mi WNW 2.3 mph - N/A   Clear
9:58 PM 58.6 °F 56.8 °F 94% 29.96 in 10.0 mi WNW 2.3 mph - N/A   Clear
10:58 PM 57.9 °F 57.0 °F 97% 29.97 in 10.0 mi Calm Calm - N/A   Clear
11:58 PM 56.7 °F 55.6 °F 96% 29.96 in 10.0 mi NNE 1.2 mph - N/A   Clear